createdAt,value
2022-10-22T00:01:16.373Z,100744.97
2022-10-22T00:03:44.731Z,100736.22
2022-10-22T00:06:13.147Z,100733.56
2022-10-22T00:08:42.592Z,100734.16
2022-10-22T00:11:13.706Z,100735.03
2022-10-22T00:13:42.877Z,100740.63
2022-10-22T00:16:11.941Z,100744.84
2022-10-22T00:18:41.344Z,100736.47
2022-10-22T00:21:09.975Z,100733.97
2022-10-22T00:23:41.498Z,100741.72
2022-10-22T00:26:10.819Z,100739.22
2022-10-22T00:28:39.530Z,100737.13
2022-10-22T00:31:07.951Z,100740.44
2022-10-22T00:33:36.361Z,100736.34
2022-10-22T00:36:05.991Z,100740.47
2022-10-22T00:38:34.617Z,100738.19
2022-10-22T00:41:03.139Z,100730.28
2022-10-22T00:43:31.723Z,100729.25
2022-10-22T00:46:00.087Z,100727.59
2022-10-22T00:48:31.238Z,100729.66
2022-10-22T00:51:09.063Z,100732.59
2022-10-22T00:53:47.275Z,100742.59
2022-10-22T00:56:15.956Z,100736.56
2022-10-22T00:58:48.749Z,100751.78
2022-10-22T01:01:21.520Z,100740.94
2022-10-22T01:03:51.178Z,100744.91
2022-10-22T01:06:25.150Z,100736.81
2022-10-22T01:09:05.803Z,100733.47
2022-10-22T01:11:43.412Z,100728.06
2022-10-22T01:14:21.194Z,100733.03
2022-10-22T01:17:11.310Z,100732.59
2022-10-22T01:19:58.223Z,100732.41
2022-10-22T01:22:41.125Z,100733.03
2022-10-22T01:25:37.793Z,100743.03
2022-10-22T01:28:15.274Z,100734.25
2022-10-22T01:30:46.140Z,100738.81
2022-10-22T01:33:21.815Z,100731.53
2022-10-22T01:35:50.728Z,100729.03
2022-10-22T01:38:22.753Z,100722.97
2022-10-22T01:40:51.700Z,100728.41
2022-10-22T01:43:20.416Z,100728.66
2022-10-22T01:45:51.925Z,100724.72
2022-10-22T01:48:37.288Z,100720.72
2022-10-22T01:51:18.951Z,100723.84
2022-10-22T01:54:02.646Z,100726.16
2022-10-22T01:57:04.611Z,100728.66
2022-10-22T01:59:39.183Z,100728.19
2022-10-22T02:02:14.663Z,100732.09
2022-10-22T02:04:49.450Z,100732.53
2022-10-22T02:07:21.947Z,100736.31
2022-10-22T02:09:52.953Z,100734.91
2022-10-22T02:12:24.843Z,100728.84
2022-10-22T02:14:55.122Z,100728.47
2022-10-22T02:17:29.113Z,100729.69
2022-10-22T02:20:01.419Z,100729.31
2022-10-22T02:22:30.355Z,100729.91
2022-10-22T02:24:58.817Z,100731.38
2022-10-22T02:27:32.259Z,100730.47
2022-10-22T02:30:06.896Z,100724.38
2022-10-22T02:32:50.100Z,100727.13
2022-10-22T02:35:22.325Z,100730.91
2022-10-22T02:37:52.751Z,100737.59
2022-10-22T02:40:21.560Z,100735.09
2022-10-22T02:42:50.896Z,100733.03
2022-10-22T02:45:20.810Z,100730.16
2022-10-22T02:47:49.155Z,100736.00
2022-10-22T02:50:17.512Z,100736.34
2022-10-22T02:52:45.917Z,100742.41
2022-10-22T02:55:14.592Z,100743.25
2022-10-22T02:57:43.220Z,100741.75
2022-10-22T03:00:12.879Z,100746.72
2022-10-22T03:02:41.248Z,100739.69
2022-10-22T03:05:10.001Z,100748.88
2022-10-22T03:07:39.233Z,100750.31
2022-10-22T03:10:08.241Z,100749.50
2022-10-22T03:12:36.684Z,100748.69
2022-10-22T03:15:05.538Z,100752.03
2022-10-22T03:17:33.936Z,100755.59
2022-10-22T03:20:02.399Z,100755.97
2022-10-22T03:22:34.280Z,100753.50
2022-10-22T03:25:09.115Z,100757.69
2022-10-22T03:27:39.453Z,100763.50
2022-10-22T03:30:10.182Z,100768.72
2022-10-22T03:32:38.767Z,100761.22
2022-10-22T03:35:07.479Z,100767.69
2022-10-22T03:37:36.780Z,100765.59
2022-10-22T03:40:07.580Z,100767.69
2022-10-22T03:42:36.985Z,100769.34
2022-10-22T03:45:06.042Z,100772.47
2022-10-22T03:47:36.675Z,100772.94
2022-10-22T03:50:06.175Z,100775.84
2022-10-22T03:52:39.909Z,100781.44
2022-10-22T03:55:09.173Z,100779.34
2022-10-22T03:57:37.938Z,100785.84
2022-10-22T04:00:09.296Z,100793.34
2022-10-22T04:02:37.638Z,100783.06
2022-10-22T04:05:06.536Z,100786.44
2022-10-22T04:07:34.984Z,100791.44
2022-10-22T04:10:04.070Z,100789.34
2022-10-22T04:12:32.492Z,100784.78
2022-10-22T04:15:00.956Z,100785.59
2022-10-22T04:17:34.464Z,100784.72
2022-10-22T04:20:04.280Z,100794.31
2022-10-22T04:22:36.702Z,100790.16
2022-10-22T04:25:06.667Z,100792.63
2022-10-22T04:27:36.528Z,100795.34
2022-10-22T04:30:06.501Z,100798.28
2022-10-22T04:32:34.857Z,100798.66
2022-10-22T04:35:03.670Z,100798.91
2022-10-22T04:37:32.845Z,100796.19
2022-10-22T04:40:01.448Z,100795.78
2022-10-22T04:42:29.952Z,100798.06
2022-10-22T04:44:59.534Z,100797.88
2022-10-22T04:47:28.887Z,100791.63
2022-10-22T04:49:57.399Z,100800.13
2022-10-22T04:52:25.754Z,100799.91
2022-10-22T04:54:54.124Z,100803.69
2022-10-22T04:57:22.429Z,100809.72
2022-10-22T04:59:50.813Z,100812.44
2022-10-22T05:02:19.108Z,100811.44
2022-10-22T05:04:47.581Z,100812.28
2022-10-22T05:07:16.021Z,100811.41
2022-10-22T05:09:44.554Z,100810.78
2022-10-22T05:12:12.994Z,100813.28
2022-10-22T05:14:44.040Z,100808.69
2022-10-22T05:17:13.279Z,100815.56
2022-10-22T05:19:41.644Z,100811.16
2022-10-22T05:22:10.011Z,100818.06
2022-10-22T05:24:38.461Z,100818.00
2022-10-22T05:27:07.149Z,100814.91
2022-10-22T05:29:35.561Z,100820.13
2022-10-22T05:32:04.144Z,100830.75
2022-10-22T05:34:33.463Z,100825.50
2022-10-22T05:37:01.931Z,100824.91
2022-10-22T05:39:30.396Z,100829.03
2022-10-22T05:41:58.742Z,100831.38
2022-10-22T05:44:27.253Z,100826.75
2022-10-22T05:46:55.644Z,100837.41
2022-10-22T05:49:23.996Z,100834.91
2022-10-22T05:51:52.395Z,100843.25
2022-10-22T05:54:22.307Z,100845.31
2022-10-22T05:56:50.730Z,100848.25
2022-10-22T05:59:19.088Z,100845.75
2022-10-22T06:01:47.602Z,100845.16
2022-10-22T06:04:17.995Z,100847.25
2022-10-22T06:06:48.967Z,100849.97
2022-10-22T06:09:24.842Z,100858.50
2022-10-22T06:11:54.212Z,100860.81
2022-10-22T06:14:23.831Z,100868.56
2022-10-22T06:16:52.810Z,100863.97
2022-10-22T06:19:23.002Z,100872.75
2022-10-22T06:21:51.368Z,100874.03
2022-10-22T06:24:19.736Z,100880.28
2022-10-22T06:26:52.373Z,100874.81
2022-10-22T06:29:21.224Z,100875.69
2022-10-22T06:31:49.673Z,100886.13
2022-10-22T06:34:18.989Z,100896.34
2022-10-22T06:36:47.548Z,100891.53
2022-10-22T06:39:17.835Z,100901.75
2022-10-22T06:41:46.856Z,100902.38
2022-10-22T06:44:17.740Z,100912.78
2022-10-22T06:46:49.557Z,100913.84
2022-10-22T06:49:19.070Z,100921.56
2022-10-22T06:51:52.193Z,100920.53
2022-10-22T06:54:22.252Z,100921.13
2022-10-22T06:56:50.709Z,100934.50
2022-10-22T06:59:19.060Z,100927.00
2022-10-22T07:01:47.525Z,100938.47
2022-10-22T07:04:16.260Z,100948.72
2022-10-22T07:06:44.711Z,100941.19
2022-10-22T07:09:13.182Z,100951.22
2022-10-22T07:11:44.626Z,100951.00
2022-10-22T07:14:14.263Z,100949.53
2022-10-22T07:16:43.193Z,100959.75
2022-10-22T07:19:12.426Z,100961.22
2022-10-22T07:21:40.979Z,100962.06
2022-10-22T07:24:09.387Z,100964.97
2022-10-22T07:26:37.923Z,100973.91
2022-10-22T07:29:06.348Z,100970.56
2022-10-22T07:31:34.903Z,100981.19
2022-10-22T07:34:03.563Z,100984.72
2022-10-22T07:36:32.032Z,100982.44
2022-10-22T07:39:01.113Z,100988.28
2022-10-22T07:41:30.443Z,100990.38
2022-10-22T07:43:59.427Z,100996.47
2022-10-22T07:46:28.789Z,101002.31
2022-10-22T07:48:57.131Z,100999.56
2022-10-22T07:51:25.567Z,101004.41
2022-10-22T07:53:53.924Z,100998.56
2022-10-22T07:56:22.427Z,101004.22
2022-10-22T07:58:50.840Z,101010.03
2022-10-22T08:01:19.313Z,101011.66
2022-10-22T08:03:48.771Z,101011.22
2022-10-22T08:06:17.751Z,101012.81
2022-10-22T08:08:46.410Z,101017.44
2022-10-22T08:11:14.901Z,101023.25
2022-10-22T08:13:45.700Z,101021.16
2022-10-22T08:16:14.891Z,101027.44
2022-10-22T08:18:43.451Z,101030.34
2022-10-22T08:21:13.101Z,101039.28
2022-10-22T08:23:41.529Z,101040.13
2022-10-22T08:26:10.827Z,101038.56
2022-10-22T08:28:39.315Z,101046.69
2022-10-22T08:31:08.311Z,101047.94
2022-10-22T08:33:38.900Z,101052.78
2022-10-22T08:36:08.170Z,101043.31
2022-10-22T08:38:36.668Z,101051.84
2022-10-22T08:41:12.147Z,101059.81
2022-10-22T08:44:02.492Z,101068.50
2022-10-22T08:46:41.002Z,101070.78
2022-10-22T08:49:18.778Z,101079.09
2022-10-22T08:51:47.456Z,101080.56
2022-10-22T08:54:31.877Z,101080.41
2022-10-22T08:57:09.015Z,101081.91
2022-10-22T08:59:47.103Z,101084.31
2022-10-22T09:02:48.988Z,101102.81
2022-10-22T09:05:34.336Z,101095.91
2022-10-22T09:08:02.808Z,101093.16
2022-10-22T09:10:36.463Z,101100.00
2022-10-22T09:13:05.013Z,101108.81
2022-10-22T09:15:33.408Z,101119.66
2022-10-22T09:18:21.777Z,101115.53
2022-10-22T09:20:55.876Z,101109.59
2022-10-22T09:23:49.865Z,101120.31
2022-10-22T09:26:18.267Z,101120.06
2022-10-22T09:28:52.095Z,101127.88
2022-10-22T09:31:20.562Z,101130.84
2022-10-22T09:33:50.798Z,101129.63
2022-10-22T09:36:22.808Z,101132.19
2022-10-22T09:38:52.442Z,101129.19
2022-10-22T09:41:29.836Z,101130.22
2022-10-22T09:43:59.209Z,101144.78
2022-10-22T09:46:29.930Z,101144.78
2022-10-22T09:49:12.100Z,101140.22
2022-10-22T09:52:00.046Z,101144.41
2022-10-22T09:54:42.169Z,101158.78
2022-10-22T09:57:17.471Z,101157.44
2022-10-22T09:59:49.210Z,101160.63
2022-10-22T10:02:38.298Z,101160.50
2022-10-22T10:05:08.595Z,101164.03
2022-10-22T10:07:37.415Z,101172.34
2022-10-22T10:10:19.306Z,101168.44
2022-10-22T10:13:02.258Z,101187.31
2022-10-22T10:15:50.778Z,101179.94
2022-10-22T10:18:38.422Z,101194.09
2022-10-22T10:21:24.065Z,101190.91
2022-10-22T10:23:57.856Z,101204.81
2022-10-22T10:26:48.962Z,101201.91
2022-10-22T10:29:58.917Z,101205.03
2022-10-22T10:33:16.444Z,101210.41
2022-10-22T10:36:32.832Z,101214.38
2022-10-22T10:39:24.067Z,101217.72
2022-10-22T10:42:05.744Z,101216.31
2022-10-22T10:44:43.186Z,101218.03
2022-10-22T10:47:49.184Z,101214.13
2022-10-22T10:50:27.111Z,101223.03
2022-10-22T10:53:04.689Z,101225.44
2022-10-22T10:55:41.998Z,101221.94
2022-10-22T10:58:36.964Z,101212.84
2022-10-22T11:01:18.998Z,101217.59
2022-10-22T11:04:04.307Z,101215.50
2022-10-22T11:06:34.135Z,101218.28
2022-10-22T11:09:07.607Z,101210.00
2022-10-22T11:11:46.659Z,101219.72
2022-10-22T11:14:21.052Z,101214.78
2022-10-22T11:17:01.871Z,101214.78
2022-10-22T11:19:51.543Z,101211.19
2022-10-22T11:22:28.538Z,101217.66
2022-10-22T11:25:22.234Z,101215.78
2022-10-22T11:28:06.776Z,101226.06
2022-10-22T11:30:40.459Z,101222.72
2022-10-22T11:33:18.424Z,101214.00
2022-10-22T11:35:49.988Z,101208.16
2022-10-22T11:38:23.766Z,101216.81
2022-10-22T11:41:06.009Z,101213.78
2022-10-22T11:43:58.590Z,101206.50
2022-10-22T11:46:34.297Z,101209.84
2022-10-22T11:49:13.830Z,101201.16
2022-10-22T11:51:45.403Z,101202.50
2022-10-22T11:54:32.659Z,101200.53
2022-10-22T11:57:16.292Z,101208.84
2022-10-22T12:00:09.717Z,101204.31
2022-10-22T12:02:45.878Z,101203.84
2022-10-22T12:05:34.972Z,101206.56
2022-10-22T12:08:17.752Z,101201.59
2022-10-22T12:11:06.581Z,101212.75
2022-10-22T12:13:58.717Z,101211.25
2022-10-22T12:16:54.699Z,101220.06
2022-10-22T12:19:30.186Z,101227.41
2022-10-22T12:22:10.973Z,101225.13
2022-10-22T12:24:44.631Z,101217.19
2022-10-22T12:27:35.638Z,101225.34
2022-10-22T12:30:23.614Z,101221.34
2022-10-22T12:32:56.662Z,101224.56
2022-10-22T12:35:29.662Z,101228.97
2022-10-22T12:38:01.448Z,101226.81
2022-10-22T12:40:34.112Z,101225.25
2022-10-22T12:45:40.339Z,101227.66
2022-10-22T12:48:14.645Z,101227.09
2022-10-22T12:50:49.439Z,101219.88
2022-10-22T12:53:22.474Z,101222.38
2022-10-22T12:55:52.474Z,101219.50
2022-10-22T12:58:26.433Z,101212.59
2022-10-22T13:01:02.071Z,101225.88
2022-10-22T13:03:39.657Z,101217.06
2022-10-22T13:06:26.306Z,101211.53
2022-10-22T13:09:03.913Z,101215.66
2022-10-22T13:11:42.743Z,101211.13
2022-10-22T13:14:32.373Z,101210.25
2022-10-22T13:17:19.161Z,101217.16
2022-10-22T13:20:02.122Z,101213.56
2022-10-22T13:22:38.942Z,101209.81
2022-10-22T13:25:13.463Z,101206.88
2022-10-22T13:27:54.331Z,101211.94
2022-10-22T13:30:53.260Z,101206.28
2022-10-22T13:33:26.881Z,101204.53
2022-10-22T13:35:56.726Z,101209.81
2022-10-22T13:38:27.253Z,101212.75
2022-10-22T13:40:56.368Z,101206.31
2022-10-22T13:43:25.588Z,101211.56
2022-10-22T13:46:03.048Z,101201.81
2022-10-22T13:48:31.496Z,101204.97
2022-10-22T13:50:59.969Z,101201.56
2022-10-22T13:53:30.216Z,101201.59
2022-10-22T13:55:58.668Z,101203.53
2022-10-22T13:58:27.223Z,101199.81
2022-10-22T14:00:59.373Z,101197.06
2022-10-22T14:03:33.856Z,101213.63
2022-10-22T14:06:02.340Z,101221.28
2022-10-22T14:08:31.854Z,101207.69
2022-10-22T14:11:00.179Z,101205.81
2022-10-22T14:13:28.651Z,101222.69
2022-10-22T14:15:57.510Z,101213.97
2022-10-22T14:18:31.452Z,101223.91
2022-10-22T14:21:05.117Z,101216.59
2022-10-22T14:23:34.965Z,101217.81
2022-10-22T14:26:03.901Z,101211.53
2022-10-22T14:28:41.405Z,101210.13
2022-10-22T14:31:20.438Z,101222.22
2022-10-22T14:33:49.999Z,101210.47
2022-10-22T14:36:19.463Z,101209.78
2022-10-22T14:38:48.304Z,101218.88
2022-10-22T14:41:21.010Z,101216.78
2022-10-22T14:43:50.979Z,101214.19
2022-10-22T14:46:19.907Z,101213.94
2022-10-22T14:48:48.428Z,101225.47
2022-10-22T14:51:21.523Z,101219.97
2022-10-22T14:53:49.970Z,101224.25
2022-10-22T14:56:21.364Z,101237.88
2022-10-22T14:58:50.423Z,101239.09
2022-10-22T15:01:18.751Z,101236.13
2022-10-22T15:03:47.228Z,101243.13
2022-10-22T15:06:15.715Z,101249.06
2022-10-22T15:08:44.908Z,101246.72
2022-10-22T15:11:13.461Z,101251.75
2022-10-22T15:13:42.291Z,101251.78
2022-10-22T15:16:13.564Z,101258.47
2022-10-22T15:18:42.420Z,101259.38
2022-10-22T15:21:29.058Z,101248.97
2022-10-22T15:23:57.596Z,101244.34
2022-10-22T15:26:26.043Z,101254.81
2022-10-22T15:28:54.682Z,101257.19
2022-10-22T15:31:47.897Z,101255.63
2022-10-22T15:34:28.704Z,101253.94
2022-10-22T15:36:59.290Z,101257.94
2022-10-22T15:39:28.257Z,101256.06
2022-10-22T15:41:57.270Z,101253.81
2022-10-22T15:44:30.760Z,101253.69
2022-10-22T15:46:59.570Z,101250.25
2022-10-22T15:49:28.749Z,101252.03
2022-10-22T15:51:57.200Z,101252.41
2022-10-22T15:54:28.561Z,101240.59
2022-10-22T15:56:58.629Z,101245.06
2022-10-22T15:59:27.229Z,101238.81
2022-10-22T16:01:55.618Z,101236.31
2022-10-22T16:04:24.029Z,101239.78
2022-10-22T16:06:53.968Z,101232.56
2022-10-22T16:09:24.139Z,101233.69
2022-10-22T16:14:28.661Z,101244.25
2022-10-22T16:16:57.207Z,101251.13
2022-10-22T16:19:26.115Z,101250.28
2022-10-22T16:21:56.226Z,101249.59
2022-10-22T16:24:24.862Z,101247.19
2022-10-22T16:26:53.842Z,101254.03
2022-10-22T16:29:22.336Z,101261.53
2022-10-22T16:31:50.888Z,101255.53
2022-10-22T16:34:19.254Z,101258.28
2022-10-22T16:36:48.817Z,101268.59
2022-10-22T16:39:17.389Z,101258.13
2022-10-22T16:41:45.732Z,101260.50
2022-10-22T16:44:14.100Z,101264.22
2022-10-22T16:46:42.463Z,101256.84
2022-10-22T16:49:10.991Z,101257.84
2022-10-22T16:51:39.520Z,101253.84
2022-10-22T16:54:11.288Z,101251.72
2022-10-22T16:56:41.199Z,101261.84
2022-10-22T16:59:09.625Z,101261.47
2022-10-22T17:01:40.953Z,101275.78
2022-10-22T17:04:10.275Z,101270.56
2022-10-22T17:06:39.151Z,101273.72
2022-10-22T17:09:07.809Z,101277.56
2022-10-22T17:11:39.143Z,101276.75
2022-10-22T17:14:09.856Z,101273.41
2022-10-22T17:16:38.328Z,101277.56
2022-10-22T17:19:06.782Z,101281.81
2022-10-22T17:21:35.182Z,101277.84
2022-10-22T17:24:03.738Z,101274.97
2022-10-22T17:26:34.357Z,101275.63
2022-10-22T17:29:04.131Z,101279.63
2022-10-22T17:31:38.004Z,101285.50
2022-10-22T17:34:10.419Z,101284.53
2022-10-22T17:36:39.033Z,101280.41
2022-10-22T17:39:08.350Z,101278.06
2022-10-22T17:41:37.492Z,101275.78
2022-10-22T17:44:08.887Z,101278.50
2022-10-22T17:46:38.142Z,101281.50
2022-10-22T17:49:15.273Z,101283.41
2022-10-22T17:51:43.964Z,101283.41
2022-10-22T17:54:14.326Z,101287.59
2022-10-22T17:56:43.090Z,101290.34
2022-10-22T17:59:14.449Z,101292.25
2022-10-22T18:01:46.006Z,101283.47
2022-10-22T18:04:17.723Z,101284.78
2022-10-22T18:06:48.317Z,101284.78
2022-10-22T18:09:19.141Z,101292.75
2022-10-22T18:11:50.307Z,101290.91
2022-10-22T18:14:20.836Z,101291.19
2022-10-22T18:16:49.882Z,101294.66
2022-10-22T18:19:22.401Z,101299.06
2022-10-22T18:21:50.855Z,101293.72
2022-10-22T18:24:20.358Z,101299.94
2022-10-22T18:26:48.967Z,101307.50
2022-10-22T18:29:19.710Z,101308.94
2022-10-22T18:31:48.521Z,101310.22
2022-10-22T18:34:19.112Z,101304.19
2022-10-22T18:36:50.145Z,101312.38
2022-10-22T18:39:19.512Z,101306.53
2022-10-22T18:41:48.060Z,101294.81
2022-10-22T18:44:16.918Z,101301.88
2022-10-22T18:46:45.305Z,101302.88
2022-10-22T18:49:18.318Z,101301.16
2022-10-22T18:51:52.467Z,101298.28
2022-10-22T18:54:23.877Z,101299.34
2022-10-22T18:56:55.504Z,101299.56
2022-10-22T18:59:26.921Z,101292.69
2022-10-22T19:01:59.259Z,101294.59
2022-10-22T19:04:33.185Z,101289.75
2022-10-22T19:07:01.760Z,101286.69
2022-10-22T19:09:30.470Z,101284.63
2022-10-22T19:11:59.018Z,101275.63
2022-10-22T19:14:28.590Z,101278.72
2022-10-22T19:16:56.987Z,101271.84
2022-10-22T19:19:27.604Z,101259.13
2022-10-22T19:21:56.578Z,101266.25
2022-10-22T19:24:25.396Z,101268.34
2022-10-22T19:26:53.864Z,101273.78
2022-10-22T19:29:22.296Z,101267.06
2022-10-22T19:31:51.438Z,101276.50
2022-10-22T19:34:20.601Z,101274.38
2022-10-22T19:36:51.693Z,101271.22
2022-10-22T19:39:20.593Z,101269.72
2022-10-22T19:41:49.119Z,101274.16
2022-10-22T19:44:17.606Z,101264.31
2022-10-22T19:46:45.954Z,101269.50
2022-10-22T19:49:17.618Z,101263.25
2022-10-22T19:51:51.378Z,101261.34
2022-10-22T19:54:20.393Z,101261.78
2022-10-22T19:56:49.337Z,101261.19
2022-10-22T19:59:20.358Z,101254.66
2022-10-22T20:01:50.313Z,101259.47
2022-10-22T20:04:19.337Z,101269.53
2022-10-22T20:06:47.894Z,101262.22
2022-10-22T20:09:16.435Z,101266.22
2022-10-22T20:11:45.015Z,101271.81
2022-10-22T20:14:13.781Z,101272.25
2022-10-22T20:16:42.552Z,101266.84
2022-10-22T20:19:15.863Z,101268.75
2022-10-22T20:21:45.626Z,101277.13
2022-10-22T20:24:14.481Z,101273.34
2022-10-22T20:26:46.002Z,101277.94
2022-10-22T20:29:14.922Z,101278.13
2022-10-22T20:31:43.282Z,101280.47
2022-10-22T20:34:11.812Z,101295.09
2022-10-22T20:36:40.890Z,101297.63
2022-10-22T20:39:12.667Z,101293.00
2022-10-22T20:41:41.526Z,101295.94
2022-10-22T20:44:15.009Z,101295.09
2022-10-22T20:46:44.277Z,101294.28
2022-10-22T20:49:17.764Z,101280.88
2022-10-22T20:51:46.536Z,101282.34
2022-10-22T20:54:15.502Z,101279.22
2022-10-22T20:56:44.032Z,101272.50
2022-10-22T20:59:12.694Z,101284.84
2022-10-22T21:01:44.406Z,101287.38
2022-10-22T21:04:13.717Z,101286.53
2022-10-22T21:06:43.088Z,101287.16
2022-10-22T21:09:14.007Z,101289.66
2022-10-22T21:11:43.262Z,101295.53
2022-10-22T21:14:13.971Z,101299.69
2022-10-22T21:16:43.976Z,101297.59
2022-10-22T21:19:12.393Z,101288.22
2022-10-22T21:21:41.132Z,101279.00
2022-10-22T21:24:09.748Z,101272.50
2022-10-22T21:26:40.660Z,101270.41
2022-10-22T21:29:10.823Z,101283.16
2022-10-22T21:31:40.372Z,101277.53
2022-10-22T21:34:09.806Z,101281.31
2022-10-22T21:36:38.727Z,101290.88
2022-10-22T21:39:07.438Z,101284.63
2022-10-22T21:41:37.222Z,101293.41
2022-10-22T21:44:05.665Z,101291.31
2022-10-22T21:46:34.463Z,101290.47
2022-10-22T21:49:05.043Z,101301.31
2022-10-22T21:51:35.772Z,101290.50
2022-10-22T21:54:04.491Z,101295.31
2022-10-22T21:56:34.705Z,101298.88
2022-10-22T21:59:04.267Z,101290.91
2022-10-22T22:01:33.103Z,101290.03
2022-10-22T22:04:02.259Z,101280.41
2022-10-22T22:06:33.552Z,101284.38
2022-10-22T22:09:04.528Z,101276.66
2022-10-22T22:11:33.672Z,101280.63
2022-10-22T22:14:02.063Z,101281.03
2022-10-22T22:16:33.185Z,101285.22
2022-10-22T22:19:08.758Z,101281.69
2022-10-22T22:21:39.608Z,101261.84
2022-10-22T22:24:09.566Z,101266.84
2022-10-22T22:26:39.079Z,101256.63
2022-10-22T22:29:07.464Z,101271.22
2022-10-22T22:31:37.504Z,101275.44
2022-10-22T22:34:14.917Z,101274.63
2022-10-22T22:36:45.833Z,101275.00
2022-10-22T22:39:25.236Z,101268.97
2022-10-22T22:41:53.809Z,101263.06
2022-10-22T22:44:22.157Z,101261.63
2022-10-22T22:49:18.952Z,101254.50
2022-10-22T22:51:49.005Z,101260.78
2022-10-22T22:54:17.471Z,101256.19
2022-10-22T22:56:45.895Z,101247.63
2022-10-22T22:59:14.252Z,101243.41
2022-10-22T23:01:42.632Z,101245.50
2022-10-22T23:04:14.065Z,101241.75
2022-10-22T23:06:42.627Z,101250.34
2022-10-22T23:09:13.332Z,101245.72
2022-10-22T23:11:43.490Z,101257.84
2022-10-22T23:14:14.656Z,101251.16
2022-10-22T23:16:46.192Z,101249.69
2022-10-22T23:19:16.824Z,101246.53
2022-10-22T23:21:48.060Z,101244.47
2022-10-22T23:24:19.018Z,101241.78
2022-10-22T23:26:52.287Z,101239.47
2022-10-22T23:29:26.749Z,101239.88
2022-10-22T23:31:58.478Z,101244.91
2022-10-22T23:34:28.578Z,101238.16
2022-10-22T23:36:57.083Z,101238.53
2022-10-22T23:39:27.751Z,101224.41
2022-10-22T23:41:56.771Z,101222.94
2022-10-22T23:44:25.866Z,101212.22
2022-10-22T23:46:55.089Z,101207.81
2022-10-22T23:49:23.489Z,101205.53
2022-10-22T23:51:51.912Z,101210.16
2022-10-22T23:54:20.308Z,101213.50
2022-10-22T23:56:48.763Z,101210.59
2022-10-22T23:59:17.136Z,101203.91
